sensor_id;sensor_type;location;lat;lon;timestamp;temperature;humidity
19348;DHT22;9810;52.480;9.806;2024-01-15T00:02:26;2.00;99.90
19348;DHT22;9810;52.480;9.806;2024-01-15T00:04:53;1.80;99.90
19348;DHT22;9810;52.480;9.806;2024-01-15T00:07:20;1.70;99.90
19348;DHT22;9810;52.480;9.806;2024-01-15T00:09:47;1.70;99.90
19348;DHT22;9810;52.480;9.806;2024-01-15T00:12:13;1.70;99.90
19348;DHT22;9810;52.480;9.806;2024-01-15T00:14:40;1.60;99.90
19348;DHT22;9810;52.480;9.806;2024-01-15T00:17:09;1.70;99.90
19348;DHT22;9810;52.480;9.806;2024-01-15T00:19:36;1.70;99.90
19348;DHT22;9810;52.480;9.806;2024-01-15T00:22:03;1.70;99.90
19348;DHT22;9810;52.480;9.806;2024-01-15T00:24:30;1.80;99.90
19348;DHT22;9810;52.480;9.806;2024-01-15T00:26:57;1.70;99.90
19348;DHT22;9810;52.480;9.806;2024-01-15T00:29:24;1.70;99.90
19348;DHT22;9810;52.480;9.806;2024-01-15T00:31:51;1.60;99.90
19348;DHT22;9810;52.480;9.806;2024-01-15T00:34:19;1.70;99.90
19348;DHT22;9810;52.480;9.806;2024-01-15T00:36:46;1.70;99.90
19348;DHT22;9810;52.480;9.806;2024-01-15T00:39:13;1.80;99.90
19348;DHT22;9810;52.480;9.806;2024-01-15T00:41:42;1.60;99.90
19348;DHT22;9810;52.480;9.806;2024-01-15T00:44:09;1.60;99.90
19348;DHT22;9810;52.480;9.806;2024-01-15T00:46:43;1.60;99.90
19348;DHT22;9810;52.480;9.806;2024-01-15T00:49:10;1.70;99.90
19348;DHT22;9810;52.480;9.806;2024-01-15T00:51:38;1.60;99.90
19348;DHT22;9810;52.480;9.806;2024-01-15T00:54:05;1.70;99.90
19348;DHT22;9810;52.480;9.806;2024-01-15T00:56:32;1.80;99.90
19348;DHT22;9810;52.480;9.806;2024-01-15T00:59:00;1.70;99.90
19348;DHT22;9810;52.480;9.806;2024-01-15T01:01:27;1.60;99.90
19348;DHT22;9810;52.480;9.806;2024-01-15T01:03:54;1.80;99.90
19348;DHT22;9810;52.480;9.806;2024-01-15T01:06:21;1.70;99.90
19348;DHT22;9810;52.480;9.806;2024-01-15T01:08:49;1.70;99.90
19348;DHT22;9810;52.480;9.806;2024-01-15T01:11:16;1.70;99.90
19348;DHT22;9810;52.480;9.806;2024-01-15T01:13:43;1.60;99.90
19348;DHT22;9810;52.480;9.806;2024-01-15T01:16:10;1.70;99.90
19348;DHT22;9810;52.480;9.806;2024-01-15T01:18:37;1.70;99.90
19348;DHT22;9810;52.480;9.806;2024-01-15T01:21:04;1.70;99.90
19348;DHT22;9810;52.480;9.806;2024-01-15T01:23:31;1.70;99.90
19348;DHT22;9810;52.480;9.806;2024-01-15T01:25:59;1.70;99.90
19348;DHT22;9810;52.480;9.806;2024-01-15T01:28:26;1.90;99.90
19348;DHT22;9810;52.480;9.806;2024-01-15T01:30:53;1.80;99.90
19348;DHT22;9810;52.480;9.806;2024-01-15T01:33:20;1.90;99.90
19348;DHT22;9810;52.480;9.806;2024-01-15T01:35:47;2.00;99.90
19348;DHT22;9810;52.480;9.806;2024-01-15T01:38:14;1.80;99.90
19348;DHT22;9810;52.480;9.806;2024-01-15T01:40:41;1.90;99.90
19348;DHT22;9810;52.480;9.806;2024-01-15T01:43:10;1.80;99.90
19348;DHT22;9810;52.480;9.806;2024-01-15T01:45:38;1.80;99.90
19348;DHT22;9810;52.480;9.806;2024-01-15T01:48:05;1.90;99.90
19348;DHT22;9810;52.480;9.806;2024-01-15T01:50:33;2.00;99.90
19348;DHT22;9810;52.480;9.806;2024-01-15T01:53:01;2.10;99.90
19348;DHT22;9810;52.480;9.806;2024-01-15T01:55:31;2.10;99.90
19348;DHT22;9810;52.480;9.806;2024-01-15T01:57:59;2.00;99.90
19348;DHT22;9810;52.480;9.806;2024-01-15T02:00:28;2.20;99.90
19348;DHT22;9810;52.480;9.806;2024-01-15T02:02:56;2.20;99.90
19348;DHT22;9810;52.480;9.806;2024-01-15T02:05:23;2.10;99.90
19348;DHT22;9810;52.480;9.806;2024-01-15T02:07:50;2.20;99.90
19348;DHT22;9810;52.480;9.806;2024-01-15T02:10:17;2.20;99.90
19348;DHT22;9810;52.480;9.806;2024-01-15T02:12:44;2.20;99.90
19348;DHT22;9810;52.480;9.806;2024-01-15T02:15:14;2.20;99.90
19348;DHT22;9810;52.480;9.806;2024-01-15T02:18:02;2.20;99.90
19348;DHT22;9810;52.480;9.806;2024-01-15T02:20:30;2.20;99.90
19348;DHT22;9810;52.480;9.806;2024-01-15T02:23:08;2.40;99.90
19348;DHT22;9810;52.480;9.806;2024-01-15T02:25:36;2.20;99.90
19348;DHT22;9810;52.480;9.806;2024-01-15T02:28:04;2.30;99.90
19348;DHT22;9810;52.480;9.806;2024-01-15T02:30:32;2.30;99.90
19348;DHT22;9810;52.480;9.806;2024-01-15T02:32:59;2.30;99.90
19348;DHT22;9810;52.480;9.806;2024-01-15T02:35:26;2.30;99.90
19348;DHT22;9810;52.480;9.806;2024-01-15T02:37:53;2.30;99.90
19348;DHT22;9810;52.480;9.806;2024-01-15T02:40:21;2.20;99.90
19348;DHT22;9810;52.480;9.806;2024-01-15T02:42:48;2.20;99.90
19348;DHT22;9810;52.480;9.806;2024-01-15T02:45:15;2.30;99.90
19348;DHT22;9810;52.480;9.806;2024-01-15T02:47:42;2.40;99.90
19348;DHT22;9810;52.480;9.806;2024-01-15T02:50:09;2.50;99.90
19348;DHT22;9810;52.480;9.806;2024-01-15T02:52:36;2.50;99.90
19348;DHT22;9810;52.480;9.806;2024-01-15T02:55:03;2.60;99.90
19348;DHT22;9810;52.480;9.806;2024-01-15T02:57:32;2.40;99.90
19348;DHT22;9810;52.480;9.806;2024-01-15T02:59:59;2.30;99.90
19348;DHT22;9810;52.480;9.806;2024-01-15T03:02:26;2.30;99.90
19348;DHT22;9810;52.480;9.806;2024-01-15T03:04:53;2.40;99.90
19348;DHT22;9810;52.480;9.806;2024-01-15T03:07:19;2.40;99.90
19348;DHT22;9810;52.480;9.806;2024-01-15T03:09:46;2.30;99.90
19348;DHT22;9810;52.480;9.806;2024-01-15T03:12:13;2.40;99.90
19348;DHT22;9810;52.480;9.806;2024-01-15T03:14:42;2.60;99.90
19348;DHT22;9810;52.480;9.806;2024-01-15T03:17:09;2.60;99.90
19348;DHT22;9810;52.480;9.806;2024-01-15T03:19:36;2.40;99.90
19348;DHT22;9810;52.480;9.806;2024-01-15T03:22:03;2.20;99.90
19348;DHT22;9810;52.480;9.806;2024-01-15T03:24:31;2.40;99.90
19348;DHT22;9810;52.480;9.806;2024-01-15T03:26:58;2.50;99.90
19348;DHT22;9810;52.480;9.806;2024-01-15T03:29:26;2.40;99.90
19348;DHT22;9810;52.480;9.806;2024-01-15T03:31:54;2.50;99.90
19348;DHT22;9810;52.480;9.806;2024-01-15T03:34:21;2.40;99.90
19348;DHT22;9810;52.480;9.806;2024-01-15T03:36:48;2.20;99.90
19348;DHT22;9810;52.480;9.806;2024-01-15T03:39:15;2.30;99.90
19348;DHT22;9810;52.480;9.806;2024-01-15T03:41:42;2.30;99.90
19348;DHT22;9810;52.480;9.806;2024-01-15T03:44:09;2.10;99.90
19348;DHT22;9810;52.480;9.806;2024-01-15T03:46:36;2.30;99.90
19348;DHT22;9810;52.480;9.806;2024-01-15T03:49:04;2.20;99.90
19348;DHT22;9810;52.480;9.806;2024-01-15T03:51:32;2.20;99.90
19348;DHT22;9810;52.480;9.806;2024-01-15T03:53:59;2.30;99.90
19348;DHT22;9810;52.480;9.806;2024-01-15T03:56:25;2.40;99.90
19348;DHT22;9810;52.480;9.806;2024-01-15T03:58:52;2.50;99.90
19348;DHT22;9810;52.480;9.806;2024-01-15T04:01:19;2.40;99.90
19348;DHT22;9810;52.480;9.806;2024-01-15T04:03:46;2.30;99.90
19348;DHT22;9810;52.480;9.806;2024-01-15T04:06:15;2.30;99.90
19348;DHT22;9810;52.480;9.806;2024-01-15T04:08:42;2.40;99.90
19348;DHT22;9810;52.480;9.806;2024-01-15T04:11:08;2.40;99.90
19348;DHT22;9810;52.480;9.806;2024-01-15T04:13:35;2.20;99.90
19348;DHT22;9810;52.480;9.806;2024-01-15T04:16:03;2.30;99.90
19348;DHT22;9810;52.480;9.806;2024-01-15T04:18:30;2.30;99.90
19348;DHT22;9810;52.480;9.806;2024-01-15T04:20:57;2.30;99.90
19348;DHT22;9810;52.480;9.806;2024-01-15T04:23:26;2.30;99.90
19348;DHT22;9810;52.480;9.806;2024-01-15T04:25:52;2.20;99.90
19348;DHT22;9810;52.480;9.806;2024-01-15T04:28:19;2.30;99.90
19348;DHT22;9810;52.480;9.806;2024-01-15T04:30:46;2.30;99.90
19348;DHT22;9810;52.480;9.806;2024-01-15T04:33:13;2.30;99.90
19348;DHT22;9810;52.480;9.806;2024-01-15T04:35:40;2.50;99.90
19348;DHT22;9810;52.480;9.806;2024-01-15T04:38:07;2.30;99.90
19348;DHT22;9810;52.480;9.806;2024-01-15T04:40:36;2.30;99.90
19348;DHT22;9810;52.480;9.806;2024-01-15T04:43:03;2.10;99.90
19348;DHT22;9810;52.480;9.806;2024-01-15T04:45:30;1.90;99.90
19348;DHT22;9810;52.480;9.806;2024-01-15T04:47:57;1.70;99.90
19348;DHT22;9810;52.480;9.806;2024-01-15T04:50:24;1.80;99.90
19348;DHT22;9810;52.480;9.806;2024-01-15T04:52:51;1.80;99.90
19348;DHT22;9810;52.480;9.806;2024-01-15T04:55:18;2.10;99.90
19348;DHT22;9810;52.480;9.806;2024-01-15T04:57:46;2.20;99.90
19348;DHT22;9810;52.480;9.806;2024-01-15T05:00:13;2.00;99.90
19348;DHT22;9810;52.480;9.806;2024-01-15T05:02:41;2.10;99.90
19348;DHT22;9810;52.480;9.806;2024-01-15T05:05:08;1.90;99.90
19348;DHT22;9810;52.480;9.806;2024-01-15T05:07:35;2.20;99.90
19348;DHT22;9810;52.480;9.806;2024-01-15T05:10:02;2.20;99.90
19348;DHT22;9810;52.480;9.806;2024-01-15T05:12:29;2.10;99.90
19348;DHT22;9810;52.480;9.806;2024-01-15T05:14:58;2.20;99.90
19348;DHT22;9810;52.480;9.806;2024-01-15T05:17:25;2.10;99.90
19348;DHT22;9810;52.480;9.806;2024-01-15T05:19:52;2.10;99.90
19348;DHT22;9810;52.480;9.806;2024-01-15T05:22:18;1.90;99.90
19348;DHT22;9810;52.480;9.806;2024-01-15T05:24:46;2.00;99.90
19348;DHT22;9810;52.480;9.806;2024-01-15T05:27:13;2.00;99.90
19348;DHT22;9810;52.480;9.806;2024-01-15T05:29:40;1.90;99.90
19348;DHT22;9810;52.480;9.806;2024-01-15T05:32:09;2.00;99.90
19348;DHT22;9810;52.480;9.806;2024-01-15T05:34:35;2.10;99.90
19348;DHT22;9810;52.480;9.806;2024-01-15T05:37:03;2.10;99.90
19348;DHT22;9810;52.480;9.806;2024-01-15T05:39:30;2.20;99.90
19348;DHT22;9810;52.480;9.806;2024-01-15T05:41:57;2.30;99.90
19348;DHT22;9810;52.480;9.806;2024-01-15T05:44:24;2.30;99.90
19348;DHT22;9810;52.480;9.806;2024-01-15T05:46:51;2.20;99.90
19348;DHT22;9810;52.480;9.806;2024-01-15T05:49:20;2.20;99.90
19348;DHT22;9810;52.480;9.806;2024-01-15T05:51:47;2.10;99.90
19348;DHT22;9810;52.480;9.806;2024-01-15T05:54:14;2.00;99.90
19348;DHT22;9810;52.480;9.806;2024-01-15T05:56:40;2.00;99.90
19348;DHT22;9810;52.480;9.806;2024-01-15T05:59:07;1.90;99.90
19348;DHT22;9810;52.480;9.806;2024-01-15T06:01:34;2.00;99.90
19348;DHT22;9810;52.480;9.806;2024-01-15T06:04:01;2.10;99.90
19348;DHT22;9810;52.480;9.806;2024-01-15T06:06:30;2.10;99.90
19348;DHT22;9810;52.480;9.806;2024-01-15T06:08:57;2.10;99.90
19348;DHT22;9810;52.480;9.806;2024-01-15T06:11:30;1.90;99.90
19348;DHT22;9810;52.480;9.806;2024-01-15T06:13:57;2.20;99.90
19348;DHT22;9810;52.480;9.806;2024-01-15T06:16:24;2.10;99.90
19348;DHT22;9810;52.480;9.806;2024-01-15T06:18:51;2.10;99.90
19348;DHT22;9810;52.480;9.806;2024-01-15T06:21:18;2.10;99.90
19348;DHT22;9810;52.480;9.806;2024-01-15T06:23:47;2.00;99.90
19348;DHT22;9810;52.480;9.806;2024-01-15T06:26:14;2.10;99.90
19348;DHT22;9810;52.480;9.806;2024-01-15T06:28:41;2.00;99.90
19348;DHT22;9810;52.480;9.806;2024-01-15T06:31:08;1.90;99.90
19348;DHT22;9810;52.480;9.806;2024-01-15T06:33:34;2.00;99.90
19348;DHT22;9810;52.480;9.806;2024-01-15T06:36:01;1.90;99.90
19348;DHT22;9810;52.480;9.806;2024-01-15T06:38:28;1.90;99.90
19348;DHT22;9810;52.480;9.806;2024-01-15T06:40:57;1.90;99.90
19348;DHT22;9810;52.480;9.806;2024-01-15T06:43:24;2.10;99.90
19348;DHT22;9810;52.480;9.806;2024-01-15T06:45:51;2.30;99.90
19348;DHT22;9810;52.480;9.806;2024-01-15T06:48:18;2.20;99.90
19348;DHT22;9810;52.480;9.806;2024-01-15T06:50:45;2.20;99.90
19348;DHT22;9810;52.480;9.806;2024-01-15T06:53:12;2.10;99.90
19348;DHT22;9810;52.480;9.806;2024-01-15T06:55:39;2.10;99.90
19348;DHT22;9810;52.480;9.806;2024-01-15T06:58:07;2.20;99.90
19348;DHT22;9810;52.480;9.806;2024-01-15T07:00:34;2.10;99.90
19348;DHT22;9810;52.480;9.806;2024-01-15T07:03:01;2.30;99.90
19348;DHT22;9810;52.480;9.806;2024-01-15T07:05:29;2.30;99.90
19348;DHT22;9810;52.480;9.806;2024-01-15T07:07:56;2.20;99.90
19348;DHT22;9810;52.480;9.806;2024-01-15T07:10:23;2.20;99.90
19348;DHT22;9810;52.480;9.806;2024-01-15T07:12:50;2.20;99.90
19348;DHT22;9810;52.480;9.806;2024-01-15T07:15:18;2.20;99.90
19348;DHT22;9810;52.480;9.806;2024-01-15T07:17:45;2.30;99.90
19348;DHT22;9810;52.480;9.806;2024-01-15T07:20:12;2.20;99.90
19348;DHT22;9810;52.480;9.806;2024-01-15T07:22:39;2.30;99.90
19348;DHT22;9810;52.480;9.806;2024-01-15T07:25:06;2.30;99.90
19348;DHT22;9810;52.480;9.806;2024-01-15T07:27:33;2.40;99.90
19348;DHT22;9810;52.480;9.806;2024-01-15T07:30:00;2.30;99.90
19348;DHT22;9810;52.480;9.806;2024-01-15T07:32:31;2.90;99.90
19348;DHT22;9810;52.480;9.806;2024-01-15T07:34:58;3.00;99.90
19348;DHT22;9810;52.480;9.806;2024-01-15T07:37:25;2.60;99.90
19348;DHT22;9810;52.480;9.806;2024-01-15T07:39:52;2.40;99.90
19348;DHT22;9810;52.480;9.806;2024-01-15T07:42:19;2.60;99.90
19348;DHT22;9810;52.480;9.806;2024-01-15T07:44:46;2.50;99.90
19348;DHT22;9810;52.480;9.806;2024-01-15T07:47:13;2.40;99.90
19348;DHT22;9810;52.480;9.806;2024-01-15T07:49:41;2.50;99.90
19348;DHT22;9810;52.480;9.806;2024-01-15T07:52:09;2.40;99.90
19348;DHT22;9810;52.480;9.806;2024-01-15T07:54:38;2.30;99.90
19348;DHT22;9810;52.480;9.806;2024-01-15T07:57:05;2.70;99.90
19348;DHT22;9810;52.480;9.806;2024-01-15T07:59:32;2.50;99.90
19348;DHT22;9810;52.480;9.806;2024-01-15T08:01:59;2.50;99.90
19348;DHT22;9810;52.480;9.806;2024-01-15T08:04:26;2.40;99.90
19348;DHT22;9810;52.480;9.806;2024-01-15T08:06:55;2.50;99.90
19348;DHT22;9810;52.480;9.806;2024-01-15T08:09:22;2.80;99.90
19348;DHT22;9810;52.480;9.806;2024-01-15T08:11:49;2.40;99.90
19348;DHT22;9810;52.480;9.806;2024-01-15T08:14:17;2.10;99.90
19348;DHT22;9810;52.480;9.806;2024-01-15T08:16:44;1.90;99.90
19348;DHT22;9810;52.480;9.806;2024-01-15T08:19:11;1.80;99.90
19348;DHT22;9810;52.480;9.806;2024-01-15T08:21:39;1.90;99.90
19348;DHT22;9810;52.480;9.806;2024-01-15T08:24:08;1.70;99.90
19348;DHT22;9810;52.480;9.806;2024-01-15T08:26:35;1.80;99.90
19348;DHT22;9810;52.480;9.806;2024-01-15T08:29:02;1.80;99.90
19348;DHT22;9810;52.480;9.806;2024-01-15T08:31:29;1.90;99.90
19348;DHT22;9810;52.480;9.806;2024-01-15T08:33:56;1.80;99.90
19348;DHT22;9810;52.480;9.806;2024-01-15T08:36:25;2.10;99.90
19348;DHT22;9810;52.480;9.806;2024-01-15T08:38:51;2.10;99.90
19348;DHT22;9810;52.480;9.806;2024-01-15T08:41:20;2.00;99.90
19348;DHT22;9810;52.480;9.806;2024-01-15T08:43:47;2.10;99.90
19348;DHT22;9810;52.480;9.806;2024-01-15T08:46:14;2.10;99.90
19348;DHT22;9810;52.480;9.806;2024-01-15T08:48:41;2.00;99.90
19348;DHT22;9810;52.480;9.806;2024-01-15T08:51:08;1.90;99.90
19348;DHT22;9810;52.480;9.806;2024-01-15T08:53:35;2.10;99.90
19348;DHT22;9810;52.480;9.806;2024-01-15T08:56:01;2.10;99.90
19348;DHT22;9810;52.480;9.806;2024-01-15T08:58:30;2.10;99.90
19348;DHT22;9810;52.480;9.806;2024-01-15T09:00:57;2.20;99.90
19348;DHT22;9810;52.480;9.806;2024-01-15T09:03:24;2.20;99.90
19348;DHT22;9810;52.480;9.806;2024-01-15T09:05:51;2.20;99.90
19348;DHT22;9810;52.480;9.806;2024-01-15T09:08:18;2.10;99.90
19348;DHT22;9810;52.480;9.806;2024-01-15T09:10:45;2.30;99.90
19348;DHT22;9810;52.480;9.806;2024-01-15T09:13:12;2.40;99.90
19348;DHT22;9810;52.480;9.806;2024-01-15T09:15:41;2.50;99.90
19348;DHT22;9810;52.480;9.806;2024-01-15T09:18:09;2.50;99.90
19348;DHT22;9810;52.480;9.806;2024-01-15T09:20:36;2.30;99.90
19348;DHT22;9810;52.480;9.806;2024-01-15T09:23:04;2.40;99.90
19348;DHT22;9810;52.480;9.806;2024-01-15T09:25:31;2.30;99.90
19348;DHT22;9810;52.480;9.806;2024-01-15T09:27:58;2.40;99.90
19348;DHT22;9810;52.480;9.806;2024-01-15T09:30:25;2.50;99.90
19348;DHT22;9810;52.480;9.806;2024-01-15T09:32:53;2.40;99.90
19348;DHT22;9810;52.480;9.806;2024-01-15T09:35:22;2.40;99.90
19348;DHT22;9810;52.480;9.806;2024-01-15T09:37:51;2.60;99.90
19348;DHT22;9810;52.480;9.806;2024-01-15T09:40:20;2.60;99.90
19348;DHT22;9810;52.480;9.806;2024-01-15T09:42:47;2.70;99.90
19348;DHT22;9810;52.480;9.806;2024-01-15T09:45:15;2.80;99.90
19348;DHT22;9810;52.480;9.806;2024-01-15T09:47:43;2.80;99.90
19348;DHT22;9810;52.480;9.806;2024-01-15T09:50:12;2.80;99.90
19348;DHT22;9810;52.480;9.806;2024-01-15T09:52:40;2.90;99.90
19348;DHT22;9810;52.480;9.806;2024-01-15T09:55:08;2.90;99.90
19348;DHT22;9810;52.480;9.806;2024-01-15T09:57:40;2.90;99.90
19348;DHT22;9810;52.480;9.806;2024-01-15T10:00:08;2.80;99.90
19348;DHT22;9810;52.480;9.806;2024-01-15T10:02:36;2.90;99.90
19348;DHT22;9810;52.480;9.806;2024-01-15T10:05:04;2.90;99.90
19348;DHT22;9810;52.480;9.806;2024-01-15T10:07:35;3.00;99.90
19348;DHT22;9810;52.480;9.806;2024-01-15T10:10:03;2.90;99.90
19348;DHT22;9810;52.480;9.806;2024-01-15T10:12:30;2.80;99.90
19348;DHT22;9810;52.480;9.806;2024-01-15T10:14:57;2.90;99.90
19348;DHT22;9810;52.480;9.806;2024-01-15T10:17:24;3.10;99.90
19348;DHT22;9810;52.480;9.806;2024-01-15T10:19:52;2.90;99.90
19348;DHT22;9810;52.480;9.806;2024-01-15T10:22:19;2.70;99.90
19348;DHT22;9810;52.480;9.806;2024-01-15T10:24:48;2.80;99.90
19348;DHT22;9810;52.480;9.806;2024-01-15T10:27:15;2.70;99.90
19348;DHT22;9810;52.480;9.806;2024-01-15T10:29:42;2.70;99.90
19348;DHT22;9810;52.480;9.806;2024-01-15T10:32:09;2.80;99.90
19348;DHT22;9810;52.480;9.806;2024-01-15T10:34:38;3.00;99.90
19348;DHT22;9810;52.480;9.806;2024-01-15T10:37:07;3.00;99.90
19348;DHT22;9810;52.480;9.806;2024-01-15T10:39:35;2.60;99.90
19348;DHT22;9810;52.480;9.806;2024-01-15T10:42:04;2.50;99.90
19348;DHT22;9810;52.480;9.806;2024-01-15T10:44:32;2.60;99.90
19348;DHT22;9810;52.480;9.806;2024-01-15T10:46:59;2.90;99.90
19348;DHT22;9810;52.480;9.806;2024-01-15T10:49:27;3.20;99.90
19348;DHT22;9810;52.480;9.806;2024-01-15T10:51:54;3.20;99.90
19348;DHT22;9810;52.480;9.806;2024-01-15T10:54:23;3.10;99.90
19348;DHT22;9810;52.480;9.806;2024-01-15T10:56:50;3.20;99.90
19348;DHT22;9810;52.480;9.806;2024-01-15T10:59:21;3.10;99.90
19348;DHT22;9810;52.480;9.806;2024-01-15T11:01:49;3.20;99.90
19348;DHT22;9810;52.480;9.806;2024-01-15T11:04:19;3.20;99.90
19348;DHT22;9810;52.480;9.806;2024-01-15T11:06:49;3.10;99.90
19348;DHT22;9810;52.480;9.806;2024-01-15T11:09:17;2.90;99.90
19348;DHT22;9810;52.480;9.806;2024-01-15T11:11:45;2.80;99.90
19348;DHT22;9810;52.480;9.806;2024-01-15T11:14:35;2.70;99.90
19348;DHT22;9810;52.480;9.806;2024-01-15T11:17:02;2.90;99.90
19348;DHT22;9810;52.480;9.806;2024-01-15T11:19:36;3.10;99.90
19348;DHT22;9810;52.480;9.806;2024-01-15T11:22:07;3.00;99.90
19348;DHT22;9810;52.480;9.806;2024-01-15T11:24:36;2.90;99.90
19348;DHT22;9810;52.480;9.806;2024-01-15T11:27:03;3.00;99.90
19348;DHT22;9810;52.480;9.806;2024-01-15T11:29:32;3.10;99.90
19348;DHT22;9810;52.480;9.806;2024-01-15T11:32:04;3.10;99.90
19348;DHT22;9810;52.480;9.806;2024-01-15T11:34:55;3.10;99.90
19348;DHT22;9810;52.480;9.806;2024-01-15T11:37:24;3.20;99.90
19348;DHT22;9810;52.480;9.806;2024-01-15T11:39:52;3.20;99.90
19348;DHT22;9810;52.480;9.806;2024-01-15T11:42:21;3.30;99.90
19348;DHT22;9810;52.480;9.806;2024-01-15T11:44:49;3.20;99.90
19348;DHT22;9810;52.480;9.806;2024-01-15T11:47:33;3.10;99.90
19348;DHT22;9810;52.480;9.806;2024-01-15T11:50:07;3.20;99.90
19348;DHT22;9810;52.480;9.806;2024-01-15T11:52:36;3.10;99.90
19348;DHT22;9810;52.480;9.806;2024-01-15T11:55:12;3.20;99.90
19348;DHT22;9810;52.480;9.806;2024-01-15T11:57:42;3.20;99.90
19348;DHT22;9810;52.480;9.806;2024-01-15T12:00:13;3.30;99.90
19348;DHT22;9810;52.480;9.806;2024-01-15T12:02:42;3.00;99.90
19348;DHT22;9810;52.480;9.806;2024-01-15T12:05:10;3.10;99.90
19348;DHT22;9810;52.480;9.806;2024-01-15T12:07:38;3.20;99.90
19348;DHT22;9810;52.480;9.806;2024-01-15T12:10:08;3.10;99.90
19348;DHT22;9810;52.480;9.806;2024-01-15T12:12:48;3.10;99.90
19348;DHT22;9810;52.480;9.806;2024-01-15T12:15:17;3.20;99.90
19348;DHT22;9810;52.480;9.806;2024-01-15T12:17:47;3.20;99.90
19348;DHT22;9810;52.480;9.806;2024-01-15T12:20:14;3.40;99.90
19348;DHT22;9810;52.480;9.806;2024-01-15T12:22:41;3.30;99.90
19348;DHT22;9810;52.480;9.806;2024-01-15T12:25:09;3.40;99.90
19348;DHT22;9810;52.480;9.806;2024-01-15T12:27:36;3.20;99.90
19348;DHT22;9810;52.480;9.806;2024-01-15T12:30:04;3.20;99.90
19348;DHT22;9810;52.480;9.806;2024-01-15T12:32:32;3.30;99.90
19348;DHT22;9810;52.480;9.806;2024-01-15T12:35:03;3.30;99.90
19348;DHT22;9810;52.480;9.806;2024-01-15T12:37:30;3.10;99.90
19348;DHT22;9810;52.480;9.806;2024-01-15T12:39:59;3.40;99.90
19348;DHT22;9810;52.480;9.806;2024-01-15T12:42:26;3.40;99.90
19348;DHT22;9810;52.480;9.806;2024-01-15T12:44:55;3.30;99.90
19348;DHT22;9810;52.480;9.806;2024-01-15T12:47:23;3.20;99.90
19348;DHT22;9810;52.480;9.806;2024-01-15T12:49:51;3.20;99.90
19348;DHT22;9810;52.480;9.806;2024-01-15T12:52:22;3.50;99.90
19348;DHT22;9810;52.480;9.806;2024-01-15T12:54:49;3.60;99.90
19348;DHT22;9810;52.480;9.806;2024-01-15T12:57:17;3.50;99.90
19348;DHT22;9810;52.480;9.806;2024-01-15T12:59:44;3.30;99.90
19348;DHT22;9810;52.480;9.806;2024-01-15T13:02:11;3.40;99.90
19348;DHT22;9810;52.480;9.806;2024-01-15T13:04:39;3.40;99.90
19348;DHT22;9810;52.480;9.806;2024-01-15T13:07:06;3.30;99.90
19348;DHT22;9810;52.480;9.806;2024-01-15T13:09:35;3.10;99.90
19348;DHT22;9810;52.480;9.806;2024-01-15T13:12:02;3.20;99.90
19348;DHT22;9810;52.480;9.806;2024-01-15T13:14:29;3.10;99.90
19348;DHT22;9810;52.480;9.806;2024-01-15T13:16:56;2.70;99.90
19348;DHT22;9810;52.480;9.806;2024-01-15T13:19:24;2.60;99.90
19348;DHT22;9810;52.480;9.806;2024-01-15T13:21:51;2.40;99.90
19348;DHT22;9810;52.480;9.806;2024-01-15T13:24:19;2.20;99.90
19348;DHT22;9810;52.480;9.806;2024-01-15T13:26:47;2.30;99.90
19348;DHT22;9810;52.480;9.806;2024-01-15T13:29:14;2.40;99.90
19348;DHT22;9810;52.480;9.806;2024-01-15T13:31:41;2.50;99.90
19348;DHT22;9810;52.480;9.806;2024-01-15T13:34:08;2.70;99.90
19348;DHT22;9810;52.480;9.806;2024-01-15T13:36:35;2.90;99.90
19348;DHT22;9810;52.480;9.806;2024-01-15T13:39:04;2.80;99.90
19348;DHT22;9810;52.480;9.806;2024-01-15T13:41:34;2.90;99.90
19348;DHT22;9810;52.480;9.806;2024-01-15T13:44:03;3.00;99.90
19348;DHT22;9810;52.480;9.806;2024-01-15T13:46:30;3.10;99.90
19348;DHT22;9810;52.480;9.806;2024-01-15T13:48:57;2.70;99.90
19348;DHT22;9810;52.480;9.806;2024-01-15T13:51:24;2.50;99.90
19348;DHT22;9810;52.480;9.806;2024-01-15T13:53:51;2.50;99.90
19348;DHT22;9810;52.480;9.806;2024-01-15T13:56:18;2.50;99.90
19348;DHT22;9810;52.480;9.806;2024-01-15T13:58:46;2.70;99.90
19348;DHT22;9810;52.480;9.806;2024-01-15T14:01:15;2.70;99.90
19348;DHT22;9810;52.480;9.806;2024-01-15T14:03:43;2.80;99.90
19348;DHT22;9810;52.480;9.806;2024-01-15T14:06:10;2.70;99.90
19348;DHT22;9810;52.480;9.806;2024-01-15T14:08:37;2.50;99.90
19348;DHT22;9810;52.480;9.806;2024-01-15T14:11:04;2.40;99.90
19348;DHT22;9810;52.480;9.806;2024-01-15T14:13:32;2.60;99.90
19348;DHT22;9810;52.480;9.806;2024-01-15T14:15:59;2.50;99.90
19348;DHT22;9810;52.480;9.806;2024-01-15T14:18:28;2.40;99.90
19348;DHT22;9810;52.480;9.806;2024-01-15T14:20:55;2.30;99.90
19348;DHT22;9810;52.480;9.806;2024-01-15T14:23:22;2.30;99.90
19348;DHT22;9810;52.480;9.806;2024-01-15T14:25:49;2.40;99.90
19348;DHT22;9810;52.480;9.806;2024-01-15T14:28:16;2.50;99.90
19348;DHT22;9810;52.480;9.806;2024-01-15T14:30:43;2.20;99.90
19348;DHT22;9810;52.480;9.806;2024-01-15T14:33:10;2.30;99.90
19348;DHT22;9810;52.480;9.806;2024-01-15T14:35:38;2.20;99.90
19348;DHT22;9810;52.480;9.806;2024-01-15T14:38:05;2.20;99.90
19348;DHT22;9810;52.480;9.806;2024-01-15T14:40:34;2.30;99.90
19348;DHT22;9810;52.480;9.806;2024-01-15T14:43:01;2.20;99.90
19348;DHT22;9810;52.480;9.806;2024-01-15T14:45:28;2.40;99.90
19348;DHT22;9810;52.480;9.806;2024-01-15T14:47:55;2.60;99.90
19348;DHT22;9810;52.480;9.806;2024-01-15T14:50:23;2.50;99.90
19348;DHT22;9810;52.480;9.806;2024-01-15T14:52:52;2.60;99.90
19348;DHT22;9810;52.480;9.806;2024-01-15T14:55:19;2.40;99.90
19348;DHT22;9810;52.480;9.806;2024-01-15T14:57:48;2.40;99.90
19348;DHT22;9810;52.480;9.806;2024-01-15T15:00:16;2.30;99.90
19348;DHT22;9810;52.480;9.806;2024-01-15T15:02:43;2.40;99.90
19348;DHT22;9810;52.480;9.806;2024-01-15T15:05:10;2.40;99.90
19348;DHT22;9810;52.480;9.806;2024-01-15T15:07:38;2.30;99.90
19348;DHT22;9810;52.480;9.806;2024-01-15T15:10:09;2.20;99.90
19348;DHT22;9810;52.480;9.806;2024-01-15T15:12:36;2.40;99.90
19348;DHT22;9810;52.480;9.806;2024-01-15T15:15:04;2.30;99.90
19348;DHT22;9810;52.480;9.806;2024-01-15T15:17:32;2.10;99.90
19348;DHT22;9810;52.480;9.806;2024-01-15T15:20:00;2.50;99.90
19348;DHT22;9810;52.480;9.806;2024-01-15T15:22:28;2.40;99.90
19348;DHT22;9810;52.480;9.806;2024-01-15T15:24:55;2.20;99.90
19348;DHT22;9810;52.480;9.806;2024-01-15T15:27:23;2.30;99.90
19348;DHT22;9810;52.480;9.806;2024-01-15T15:29:52;2.10;99.90
19348;DHT22;9810;52.480;9.806;2024-01-15T15:32:19;2.10;99.90
19348;DHT22;9810;52.480;9.806;2024-01-15T15:34:46;2.10;99.90
19348;DHT22;9810;52.480;9.806;2024-01-15T15:37:13;2.20;99.90
19348;DHT22;9810;52.480;9.806;2024-01-15T15:39:42;2.10;99.90
19348;DHT22;9810;52.480;9.806;2024-01-15T15:42:09;2.00;99.90
19348;DHT22;9810;52.480;9.806;2024-01-15T15:44:38;1.90;99.90
19348;DHT22;9810;52.480;9.806;2024-01-15T15:47:10;1.70;99.90
19348;DHT22;9810;52.480;9.806;2024-01-15T15:49:38;1.70;99.90
19348;DHT22;9810;52.480;9.806;2024-01-15T15:52:05;1.60;99.90
19348;DHT22;9810;52.480;9.806;2024-01-15T15:54:32;1.60;99.90
19348;DHT22;9810;52.480;9.806;2024-01-15T15:56:59;1.70;99.90
19348;DHT22;9810;52.480;9.806;2024-01-15T15:59:26;1.60;99.90
19348;DHT22;9810;52.480;9.806;2024-01-15T16:01:54;1.60;99.90
19348;DHT22;9810;52.480;9.806;2024-01-15T16:04:21;1.50;99.90
19348;DHT22;9810;52.480;9.806;2024-01-15T16:06:48;1.50;99.90